Current Weather

Kamishly

Kamishly, Syria (OSKL)

Report from: Tuesday, August 16, 2022 6:00 AM UTC
Current time: Tuesday, August 16, 2022 7:01 AM UTC

Nearby weather
Weather history
Weather forecast

Temperature33.0°C (91.4°F)
Heat index31.7°C (89.1°F)
Dew point12.0°C (53.6°F)
Winds 8 kts (4.1 m/s, 9.2 mph) West (270°)
Clouds Sky clear
Altimeter29.74 in.Hg (1007 mB)
Relative humidity28 %
Density altitude2,458 ft. (749 m)
Remarks Ceiling and visibility OK
Flight conditions Visual Meteorological Conditions
Raw dataOSKL 160600Z 27008KT CAVOK 33/12 Q1007
An error has occurred. This application may no longer respond until reloaded. Reload 🗙